| parent folder | - | - |
| DIR | 89191_The Cookie Invasion/ | 298382643 | 2026-03-28 07:24:27 |
| DIR | 90933_Rosewood Family/ | 280013686 | 2026-03-28 12:23:57 |
| DIR | 90934_Defission Family/ | 220056754 | 2026-03-28 07:24:27 |
| DIR | 91293_Amy Thistle/ | 202035972 | 2026-03-28 07:24:27 |
| DIR | 91379_Damien Nightingale/ | 4150102 | 2026-03-28 07:24:27 |
| DIR | 91380_Eqstine Family/ | 3870559 | 2026-03-28 07:24:27 |
| DIR | 92087_Lotti Little/ | 24786266 | 2026-03-28 07:24:27 |
| - | 3090271.json | 9414 | 2025-07-03 13:53:42 |
| - | 3090271_4629092_StableDefission_00040-4260668949-425fc227462a44c4bb9aa568b6a7b3fc.png | 1109687 | 2025-07-03 13:53:42 |
| - | 3091548.json | 6463 | 2025-07-03 13:30:30 |
| - | 3091548_4630943_StableDefission_sample.jpg | 325786 | 2025-07-03 13:30:30 |
| - | 3091901.json | 22036 | 2025-07-03 13:23:51 |
| - | 3091901_4631715_StableDefission_axolotl_01.png | 985032 | 2025-07-03 13:23:50 |
| - | 3091901_4631718_StableDefission_axolotl_03.png | 940001 | 2025-07-03 13:23:51 |
| - | 3091901_4631723_StableDefission_axolotl_05.png | 956899 | 2025-07-03 13:23:51 |
| - | 3091901_4631724_StableDefission_axolotl_06.png | 948888 | 2025-07-03 13:23:51 |
| - | 3091901_4631736_StableDefission_axolotl_15.png | 930600 | 2025-07-03 13:23:51 |
| - | 3091901_4631742_StableDefission_axolotl_18.png | 822187 | 2025-07-03 13:23:51 |
| - | 3091901_4631930_StableDefission_axolotl_set_1_prompts.txt | 6596 | 2025-07-03 13:23:51 |
| - | 3091942.json | 22307 | 2025-07-03 13:23:00 |
| - | 3091942_4631798_StableDefission_beecest_01.png | 1109687 | 2023-08-13 11:10:08 |
| - | 3091942_4631799_StableDefission_beecest_02.png | 1173996 | 2025-07-03 13:23:00 |
| - | 3091942_4631800_StableDefission_beecest_03.png | 1118994 | 2025-07-03 13:23:00 |
| - | 3091942_4631809_StableDefission_beecest_08.png | 1195271 | 2025-07-03 13:23:00 |
| - | 3091942_4631813_StableDefission_beecest_10.png | 1061266 | 2025-07-03 13:23:00 |
| - | 3091942_4631819_StableDefission_beecest_14.png | 998702 | 2025-07-03 13:23:00 |
| - | 3091942_4631825_StableDefission_extracted_prompts.txt | 17735 | 2025-07-03 13:23:00 |
| - | 3092383.json | 21173 | 2025-07-03 13:15:34 |
| - | 3092383_4632554_StableDefission_turtle_1.png | 1032204 | 2025-07-03 13:15:34 |
| - | 3092383_4632555_StableDefission_turtle_2.png | 953467 | 2025-07-03 13:15:34 |
| - | 3092383_4632556_StableDefission_turtle_3.png | 925325 | 2025-07-03 13:15:34 |
| - | 3092383_4632559_StableDefission_turtle_4.png | 1036409 | 2025-07-03 13:15:34 |
| - | 3092383_4632560_StableDefission_turtle_5.png | 1005919 | 2025-07-03 13:15:35 |
| - | 3092383_4632561_StableDefission_turtle_6.png | 1067659 | 2025-07-03 13:15:35 |
| - | 3092383_4632563_StableDefission_extracted_prompts.txt | 6182 | 2025-07-03 13:15:35 |
| - | 3093345.json | 22515 | 2025-07-03 12:57:52 |
| - | 3093345_4634385_StableDefission_ant_and_bee_wedding_1.png | 2669048 | 2025-07-03 12:57:51 |
| - | 3093345_4634387_StableDefission_ant_and_bee_wedding_2.png | 2614749 | 2025-07-03 12:57:52 |
| - | 3093345_4634389_StableDefission_ant_and_bee_wedding_3.png | 2483407 | 2025-07-03 12:57:52 |
| - | 3093345_4634392_StableDefission_ant_and_bee_wedding_4.png | 2545273 | 2025-07-03 12:57:52 |
| - | 3093345_4634394_StableDefission_ant_and_bee_wedding_5.png | 2521497 | 2025-07-03 12:57:53 |
| - | 3093345_4634397_StableDefission_ant_and_bee_wedding_6.png | 2215753 | 2025-07-03 12:57:53 |
| - | 3093345_4634450_StableDefission_extracted_prompts.txt | 8562 | 2025-07-03 12:57:53 |
| - | 3093378.json | 21559 | 2025-07-03 12:57:25 |
| - | 3093378_4634438_StableDefission_gay_squirtles_1_up.png | 2286594 | 2025-07-03 12:57:24 |
| - | 3093378_4634440_StableDefission_gay_squirtles_2_up.png | 2248646 | 2025-07-03 12:57:24 |
| - | 3093378_4634441_StableDefission_gay_squirtles_3_up.png | 2418085 | 2025-07-03 12:57:24 |
| - | 3093378_4634443_StableDefission_gay_squirtles_4_up.png | 2507547 | 2025-07-03 12:57:24 |
| - | 3093378_4634445_StableDefission_gay_squirtles_5_up.png | 2330705 | 2025-07-03 12:57:25 |
| - | 3093378_4634447_StableDefission_gay_squirtles_6_up.png | 2413341 | 2025-07-03 12:57:25 |
| - | 3093378_4634452_StableDefission_extracted_prompts.txt | 6484 | 2025-07-03 12:57:25 |
| - | 3093538.json | 21262 | 2025-07-03 12:54:49 |
| - | 3093538_4634705_StableDefission_wartortle_boy_1_up.png | 1754297 | 2025-07-03 12:54:48 |
| - | 3093538_4634706_StableDefission_wartortle_boy_2_up.png | 1965463 | 2025-07-03 12:54:48 |
| - | 3093538_4634707_StableDefission_wartortle_boy_3_up.png | 1826451 | 2025-07-03 12:54:48 |
| - | 3093538_4634708_StableDefission_wartortle_boy_4_up.png | 2175712 | 2025-07-03 12:54:49 |
| - | 3093538_4634709_StableDefission_wartortle_girl_1_up.png | 1949781 | 2025-07-03 12:54:49 |
| - | 3093538_4634710_StableDefission_wartortle_girl_2_up.png | 2308116 | 2025-07-03 12:54:49 |
| - | 3093538_4634711_StableDefission_extracted_prompts.txt | 6452 | 2025-07-03 12:54:49 |
| - | 3094589.json | 17677 | 2025-07-03 12:35:02 |
| - | 3094589_4636372_StableDefission_wartortle_pairs_1_up.png | 2464387 | 2025-07-03 12:35:00 |
| - | 3094589_4636375_StableDefission_wartortle_pairs_2_up.png | 2359971 | 2025-07-03 12:35:01 |
| - | 3094589_4636379_StableDefission_wartortle_pairs_3_up.png | 2347973 | 2025-07-03 12:35:01 |
| - | 3094589_4636381_StableDefission_wartortle_pairs_4_up.png | 2274438 | 2025-07-03 12:35:02 |
| - | 3094589_4636383_StableDefission_extracted_prompts.txt | 4810 | 2025-07-03 12:35:02 |
| - | 3100007.json | 18874 | 2025-07-03 10:39:34 |
| - | 3100007_4645300_StableDefission_colt_exposure_1_up.png | 1709854 | 2025-07-03 10:39:28 |
| - | 3100007_4645301_StableDefission_colt_exposure_2_up.png | 1699161 | 2025-07-03 10:39:30 |
| - | 3100007_4645303_StableDefission_colt_exposure_3_up.png | 1619580 | 2025-07-03 10:39:32 |
| - | 3100007_4645304_StableDefission_colt_exposure_4_up.png | 1685052 | 2025-07-03 10:39:34 |
| - | 3100007_4645305_StableDefission_extracted_prompts.txt | 5341 | 2025-07-03 10:39:34 |
| - | 3100373.json | 22496 | 2025-07-03 10:32:25 |
| - | 3100373_4645792_StableDefission_horsey_pool_fun_1_up.png | 1801585 | 2025-07-03 10:32:24 |
| - | 3100373_4645794_StableDefission_horsey_pool_fun_2_up.png | 1721626 | 2025-07-03 10:32:24 |
| - | 3100373_4645798_StableDefission_horsey_pool_fun_3_up.png | 1671749 | 2025-07-03 10:32:24 |
| - | 3100373_4645803_StableDefission_horsey_pool_fun_4_up.png | 1768172 | 2025-07-03 10:32:25 |
| - | 3100373_4645806_StableDefission_horsey_pool_fun_5_up.png | 1689686 | 2025-07-03 10:32:25 |
| - | 3100373_4645808_StableDefission_horsey_pool_fun_6_up.png | 1722880 | 2025-07-03 10:32:25 |
| - | 3100608.json | 5236 | 2025-07-03 10:28:32 |
| - | 3100608_4646166_StableDefission_screen.png | 156288 | 2025-07-03 10:28:32 |
| - | 3101056.json | 18362 | 2025-07-03 10:21:17 |
| - | 3101056_4646927_StableDefission_leaky_braixen_1_up.png | 1951127 | 2025-07-03 10:21:17 |
| - | 3101056_4646929_StableDefission_leaky_braixen_2_up.png | 1838113 | 2025-07-03 10:21:17 |
| - | 3101056_4646930_StableDefission_leaky_braixen_3_up.png | 1828409 | 2025-07-03 10:21:17 |
| - | 3101056_4646932_StableDefission_leaky_braixen_4_up.png | 1664663 | 2025-07-03 10:21:17 |
| - | 3101056_4646933_StableDefission_extracted_prompts.txt | 4425 | 2025-07-03 10:21:17 |
| - | 3101860.json | 20408 | 2025-07-03 10:07:35 |
| - | 3101860_4648148_StableDefission_leaky_absol_1_up.png | 1829468 | 2025-07-03 10:07:32 |
| - | 3101860_4648149_StableDefission_leaky_absol_2_up.png | 1893794 | 2025-07-03 10:07:32 |
| - | 3101860_4648150_StableDefission_leaky_absol_3_up.png | 1996085 | 2025-07-03 10:07:33 |
| - | 3101860_4648151_StableDefission_leaky_absol_4_up.png | 1748697 | 2025-07-03 10:07:34 |
| - | 3101860_4648152_StableDefission_leaky_absol_5_up.png | 1788669 | 2025-07-03 10:07:35 |
| - | 3101860_4648155_StableDefission_extracted_prompts.txt | 6104 | 2025-07-03 10:07:35 |
| - | 3102646.json | 13785 | 2025-07-03 09:50:31 |
| - | 3102646_4650063_StableDefission_leaky_lugia_1_up.png | 1774151 | 2025-07-03 09:50:31 |
| - | 3102646_4650066_StableDefission_leaky_lugia_2_up.png | 1535565 | 2025-07-03 09:50:31 |
| - | 3102646_4650072_StableDefission_extracted_prompts.txt | 2278 | 2025-07-03 09:50:31 |
| - | 3103375.json | 18212 | 2025-07-03 09:38:32 |
| - | 3103375_4651180_StableDefission_leaky_meowscarada_1_up.png | 2060245 | 2025-07-03 09:38:31 |
| - | 3103375_4651181_StableDefission_leaky_meowscarada_2_up.png | 2096994 | 2025-07-03 09:38:31 |
| - | 3103375_4651183_StableDefission_leaky_meowscarada_3_up.png | 1807814 | 2025-07-03 09:38:32 |
| - | 3103375_4651185_StableDefission_leaky_meowscarada_4_up.png | 1841396 | 2025-07-03 09:38:32 |
| - | 3103375_4651186_StableDefission_extracted_prompts.txt | 4725 | 2025-07-03 09:38:32 |
| - | 3104276.json | 21866 | 2025-07-03 09:22:50 |
| - | 3104276_4652644_StableDefission_leaky_inteleon_1_up.png | 2066664 | 2025-07-03 09:22:50 |
| - | 3104276_4652645_StableDefission_leaky_inteleon_2_up.png | 2101983 | 2025-07-03 09:22:50 |
| - | 3104276_4652646_StableDefission_leaky_inteleon_3_up.png | 1835029 | 2025-07-03 09:22:50 |
| - | 3104276_4652648_StableDefission_leaky_inteleon_4_up.png | 1904521 | 2025-07-03 09:22:51 |
| - | 3104276_4652650_StableDefission_leaky_inteleon_5_up.png | 1703413 | 2025-07-03 09:22:51 |
| - | 3104276_4652651_StableDefission_leaky_inteleon_6_up.png | 2049962 | 2025-07-03 09:22:52 |
| - | 3104276_4652653_StableDefission_extracted_prompts.txt | 7234 | 2025-07-03 09:22:52 |
| - | 3104319.json | 10196 | 2025-07-03 09:22:00 |
| - | 3104319_4652718_StableDefission_playful_pup.png | 1702025 | 2025-07-03 09:22:00 |
| - | 3104983.json | 22220 | 2025-07-03 09:09:20 |
| - | 3104983_4654202_StableDefission_leaky_suicune_1_up.png | 2280520 | 2025-07-03 09:09:20 |
| - | 3104983_4654205_StableDefission_leaky_suicune_2_up.png | 2070270 | 2025-07-03 09:09:20 |
| - | 3104983_4654207_StableDefission_leaky_suicune_3_up.png | 2024680 | 2025-07-03 09:09:20 |
| - | 3104983_4654208_StableDefission_leaky_suicune_4_up.png | 2247998 | 2025-07-03 09:09:21 |
| - | 3104983_4654209_StableDefission_leaky_suicune_5_up.png | 2132694 | 2025-07-03 09:09:21 |
| - | 3104983_4654210_StableDefission_leaky_suicune_6_up.png | 2132477 | 2025-07-03 09:09:21 |
| - | 3104983_4654211_StableDefission_extracted_prompts.txt | 7535 | 2025-07-03 09:09:21 |
| - | 3105815.json | 17814 | 2025-07-03 08:55:26 |
| - | 3105815_4655438_StableDefission_leaky_zacian_1_up.png | 1779809 | 2025-07-03 08:55:26 |
| - | 3105815_4655442_StableDefission_leaky_zacian_2_up.png | 1835431 | 2025-07-03 08:55:26 |
| - | 3105815_4655443_StableDefission_leaky_zacian_3_up.png | 1784407 | 2025-07-03 08:55:27 |
| - | 3105815_4655445_StableDefission_leaky_zacian_4_up.png | 1758966 | 2025-07-03 08:55:27 |
| - | 3105815_4655448_StableDefission_extracted_prompts.txt | 4880 | 2025-07-03 08:55:27 |
| - | 3106724.json | 22603 | 2025-07-03 08:37:50 |
| - | 3106724_4657349_StableDefission_leaky_cat_and_dog_orgy_1_up.png | 2053299 | 2025-07-03 08:37:49 |
| - | 3106724_4657350_StableDefission_leaky_cat_and_dog_orgy_2_up.png | 1984286 | 2025-07-03 08:37:50 |
| - | 3106724_4657351_StableDefission_leaky_cat_and_dog_orgy_3_up.png | 1961369 | 2025-07-03 08:37:50 |
| - | 3106724_4657352_StableDefission_leaky_cat_and_dog_orgy_4_up.png | 2180020 | 2025-07-03 08:37:50 |
| - | 3106724_4657353_StableDefission_leaky_cat_and_dog_orgy_5_up.png | 1909759 | 2025-07-03 08:37:51 |
| - | 3106724_4657356_StableDefission_leaky_cat_and_dog_orgy_6_up.png | 2037340 | 2025-07-03 08:37:51 |
| - | 3106724_4657357_StableDefission_extracted_prompts.txt | 7770 | 2025-07-03 08:37:51 |
| - | 3111389.json | 16660 | 2025-07-03 07:15:36 |
| - | 3111389_4666133_StableDefission_camp_equine_1.png | 1642595 | 2025-07-03 07:15:36 |
| - | 3111389_4666135_StableDefission_camp_equine_2.png | 1876835 | 2025-07-03 07:15:36 |
| - | 3111389_4666137_StableDefission_camp_equine_3.png | 1626103 | 2025-07-03 07:15:36 |
| - | 3111389_4666140_StableDefission_camp_equine_4.png | 1993981 | 2025-07-03 07:15:37 |
| - | 3111389_4666145_StableDefission_extracted_prompts.txt | 4730 | 2025-07-03 07:15:37 |
| - | 3112183.json | 20805 | 2025-07-03 06:59:36 |
| - | 3112183_4668336_StableDefission_sleepy_lizard_on_the_beach_1.png | 1911096 | 2025-07-03 06:59:35 |
| - | 3112183_4668338_StableDefission_sleepy_lizard_on_the_beach_2.png | 1672993 | 2025-07-03 06:59:35 |
| - | 3112183_4668341_StableDefission_sleepy_lizard_on_the_beach_3.png | 1930536 | 2025-07-03 06:59:35 |
| - | 3112183_4668342_StableDefission_sleepy_lizard_on_the_beach_4.png | 1684587 | 2025-07-03 06:59:36 |
| - | 3112183_4668343_StableDefission_sleepy_lizard_on_the_beach_5.png | 1786452 | 2025-07-03 06:59:36 |
| - | 3112183_4668344_StableDefission_sleepy_lizard_on_the_beach_6.png | 1828540 | 2025-07-03 06:59:36 |
| - | 3112183_4668345_StableDefission_extracted_prompts.txt | 7770 | 2025-07-03 06:59:36 |
| - | 3132541.json | 9830 | 2025-07-03 00:49:39 |
| - | 3132541_4703761_StableDefission_vote.png | 944081 | 2025-07-03 00:49:39 |
| - | 3133836.json | 9772 | 2025-07-03 00:26:28 |
| - | 3133836_4706051_StableDefission_raccoon_vote.png | 1060703 | 2025-07-03 00:26:28 |
| - | 3134158.json | 10472 | 2025-07-03 00:20:20 |
| - | 3134158_4706631_StableDefission_fink_vote.png | 901978 | 2025-07-03 00:20:20 |
| - | 3161629.json | 59078 | 2025-07-02 15:28:52 |
| - | 3161629_4751549_StableDefission_panda_trick-or-treat_03.png | 971121 | 2025-07-02 15:28:50 |
| - | 3161629_4751552_StableDefission_panda_trick-or-treat_04.png | 1006879 | 2025-07-02 15:28:50 |
| - | 3161629_4751553_StableDefission_pikachu_trick-or-treat_01.png | 911128 | 2025-07-02 15:28:50 |
| - | 3161629_4751554_StableDefission_bee_f_trick-or-treat_1.png | 1005825 | 2025-07-02 15:28:51 |
| - | 3161629_4751556_StableDefission_bee_f_trick-or-treat_2.png | 1031207 | 2025-07-02 15:28:51 |
| - | 3161629_4751558_StableDefission_bee_f_trick-or-treat_3.png | 1027198 | 2025-07-02 15:28:51 |
| - | 3161629_4751559_StableDefission_bee_f_trick-or-treat_4.png | 942504 | 2025-07-02 15:28:52 |
| - | 3161629_4751561_StableDefission_bee_f_trick-or-treat_5.png | 981312 | 2025-07-02 15:28:52 |
| - | 3161629_4751562_StableDefission_bee_m_trick-or-treat_01.png | 927396 | 2025-07-02 15:28:52 |
| - | 3161629_4751563_StableDefission_bee_m_trick-or-treat_02.png | 946896 | 2025-07-02 15:28:52 |
| - | 3161629_4751565_StableDefission_bee_m_trick-or-treat_03.png | 998463 | 2025-07-02 15:28:52 |
| - | 3161629_4752298_StableDefission_bee_m_trick-or-treat_04_up.png | 3498663 | 2025-07-02 15:28:53 |
| - | 3161629_4752302_StableDefission_bee_m_trick-or-treat_05_up.png | 3851713 | 2025-07-02 15:28:54 |
| - | 3161629_4752307_StableDefission_bee_m_trick-or-treat_06_up.png | 3446164 | 2025-07-02 15:28:54 |
| - | 3161629_4752310_StableDefission_bee_m_trick-or-treat_07_up.png | 3643459 | 2025-07-02 15:28:54 |
| - | 3161629_4752312_StableDefission_bee_m_trick-or-treat_08_up.png | 3664650 | 2025-07-02 15:28:55 |
| - | 3161629_4752318_StableDefission_bee_m_trick-or-treat_09_up.png | 3638945 | 2025-07-02 15:28:55 |
| - | 3161629_4752321_StableDefission_extracted_prompts.txt | 35675 | 2025-07-02 15:28:55 |
| - | 3161629_4752323_StableDefission_lizard_trick-or-treat_01_up.png | 3259713 | 2025-07-02 15:28:47 |
| - | 3161629_4752329_StableDefission_lizard_trick-or-treat_02_up.png | 3188244 | 2025-07-02 15:28:47 |
| - | 3161629_4752330_StableDefission_lizard_trick-or-treat_03_up.png | 3116760 | 2025-07-02 15:28:48 |
| - | 3161629_4752333_StableDefission_lizard_trick-or-treat_04_up.png | 2957385 | 2025-07-02 15:28:48 |
| - | 3161629_4752336_StableDefission_lizard_trick-or-treat_05_up.png | 3205051 | 2025-07-02 15:28:48 |
| - | 3161629_4752339_StableDefission_lizard_trick-or-treat_06_up.png | 3418718 | 2025-07-02 15:28:48 |
| - | 3161629_4752341_StableDefission_lizard_trick-or-treat_07_up.png | 3057863 | 2025-07-02 15:28:49 |
| - | 3161629_4752343_StableDefission_panda_trick-or-treat_01_up.png | 3216229 | 2025-07-02 15:28:50 |
| - | 3161629_4752344_StableDefission_panda_trick-or-treat_02_up.png | 3325416 | 2025-07-02 15:28:50 |
| - | 3211102.json | 10016 | 2025-07-02 00:07:45 |
| - | 3211102_4834694_StableDefission_old_snapshot_up.png | 4534350 | 2025-07-02 00:07:45 |
| - | 3212565.json | 9891 | 2025-07-01 23:37:17 |
| - | 3212565_4837375_StableDefission_666_up.png | 4750616 | 2025-07-01 23:37:17 |
| - | 3213746.json | 8743 | 2025-07-01 23:14:05 |
| - | 3213746_4839454_StableDefission_vanny_up.png | 5333063 | 2025-07-01 23:14:05 |
| - | 3219493.json | 11688 | 2025-07-01 21:20:25 |
| - | 3219493_4849471_StableDefission_20240107225116-3654573653-530f7d0a98f04bda8c51698857b29614.png | 7058139 | 2025-07-01 21:20:25 |
| - | 3225377.json | 10352 | 2025-07-01 19:32:17 |
| - | 3225377_4859809_StableDefission_tiger_boys_in_the_mangrove_preview.png | 4323272 | 2025-07-01 19:32:17 |
| - | 3227407.json | 35371 | 2025-07-01 18:53:46 |
| - | 3227407_4863250_StableDefission_tigers_in_the_mangrove_girls_01.png | 4498252 | 2025-07-01 18:53:42 |
| - | 3227407_4863255_StableDefission_extracted_prompts.txt | 16698 | 2025-07-01 18:53:48 |
| - | 3227407_4863257_StableDefission_tigers_in_the_mangrove_girls_02.png | 4975847 | 2025-07-01 18:53:42 |
| - | 3227407_4863259_StableDefission_tigers_in_the_mangrove_girls_03.png | 4585262 | 2025-07-01 18:53:43 |
| - | 3227407_4863260_StableDefission_tigers_in_the_mangrove_girls_04.png | 5339807 | 2025-07-01 18:53:43 |
| - | 3227407_4863261_StableDefission_tigers_in_the_mangrove_girls_05.png | 2122428 | 2025-07-01 18:53:43 |
| - | 3227407_4863262_StableDefission_tigers_in_the_mangrove_girls_06.png | 4562661 | 2025-07-01 18:53:44 |
| - | 3227407_4863263_StableDefission_tigers_in_the_mangrove_girls_07.png | 4782789 | 2025-07-01 18:53:45 |
| - | 3227407_4863264_StableDefission_tigers_in_the_mangrove_girls_08.png | 4929934 | 2025-07-01 18:53:45 |
| - | 3227407_4863265_StableDefission_tigers_in_the_mangrove_girls_09.png | 4760953 | 2025-07-01 18:53:45 |
| - | 3227407_4863266_StableDefission_tigers_in_the_mangrove_girls_10.png | 4592799 | 2025-07-01 18:53:46 |
| - | 3227407_4863267_StableDefission_tigers_in_the_mangrove_girls_11.png | 4673232 | 2025-07-01 18:53:46 |
| - | 3227407_4863268_StableDefission_tigers_in_the_mangrove_girls_12.png | 4368805 | 2025-07-01 18:53:47 |
| - | 3227407_4863269_StableDefission_tigers_in_the_mangrove_girls_13.png | 4391344 | 2025-07-01 18:53:47 |
| - | 3227407_4863270_StableDefission_tigers_in_the_mangrove_girls_14.png | 4515283 | 2025-07-01 18:53:48 |
| - | 3227431.json | 77000 | 2025-07-01 18:53:15 |
| - | 3227431_4863316_StableDefission_tigers_in_the_mangrove_boys_01.png | 2092770 | 2025-07-01 18:53:01 |
| - | 3227431_4863323_StableDefission_extracted_prompts.txt | 41178 | 2025-07-01 18:53:15 |
| - | 3227431_4863325_StableDefission_tigers_in_the_mangrove_boys_02.png | 2314371 | 2025-07-01 18:53:01 |
| - | 3227431_4863327_StableDefission_tigers_in_the_mangrove_boys_03.png | 4293847 | 2025-07-01 18:53:01 |
| - | 3227431_4863328_StableDefission_tigers_in_the_mangrove_boys_04.png | 4544850 | 2025-07-01 18:53:02 |
| - | 3227431_4863330_StableDefission_tigers_in_the_mangrove_boys_05.png | 2038608 | 2025-07-01 18:53:02 |
| - | 3227431_4863332_StableDefission_tigers_in_the_mangrove_boys_06.png | 4218474 | 2025-07-01 18:53:03 |
| - | 3227431_4863333_StableDefission_tigers_in_the_mangrove_boys_07.png | 4639300 | 2025-07-01 18:53:03 |
| - | 3227431_4863334_StableDefission_tigers_in_the_mangrove_boys_08.png | 4887133 | 2025-07-01 18:53:04 |
| - | 3227431_4863336_StableDefission_tigers_in_the_mangrove_boys_09.png | 4418487 | 2025-07-01 18:53:05 |
| - | 3227431_4863337_StableDefission_tigers_in_the_mangrove_boys_10.png | 4534521 | 2025-07-01 18:53:05 |
| - | 3227431_4863338_StableDefission_tigers_in_the_mangrove_boys_11.png | 4494266 | 2025-07-01 18:53:05 |
| - | 3227431_4863340_StableDefission_tigers_in_the_mangrove_boys_12.png | 4751676 | 2025-07-01 18:53:06 |
| - | 3227431_4863342_StableDefission_tigers_in_the_mangrove_boys_13.png | 5028322 | 2025-07-01 18:53:06 |
| - | 3227431_4863343_StableDefission_tigers_in_the_mangrove_boys_14.png | 2406421 | 2025-07-01 18:53:07 |
| - | 3227431_4863344_StableDefission_tigers_in_the_mangrove_boys_15.png | 5195578 | 2025-07-01 18:53:07 |
| - | 3227431_4863345_StableDefission_tigers_in_the_mangrove_boys_16.png | 4727826 | 2025-07-01 18:53:07 |
| - | 3227431_4863346_StableDefission_tigers_in_the_mangrove_boys_17.png | 4660092 | 2025-07-01 18:53:08 |
| - | 3227431_4863348_StableDefission_tigers_in_the_mangrove_boys_18.png | 5324097 | 2025-07-01 18:53:08 |
| - | 3227431_4863350_StableDefission_tigers_in_the_mangrove_boys_19.png | 4576759 | 2025-07-01 18:53:08 |
| - | 3227431_4863351_StableDefission_tigers_in_the_mangrove_boys_20.png | 4322609 | 2025-07-01 18:53:09 |
| - | 3227431_4863353_StableDefission_tigers_in_the_mangrove_boys_21.png | 4522377 | 2025-07-01 18:53:09 |
| - | 3227431_4863354_StableDefission_tigers_in_the_mangrove_boys_22.png | 4583288 | 2025-07-01 18:53:09 |
| - | 3227431_4863355_StableDefission_tigers_in_the_mangrove_boys_23.png | 4356622 | 2025-07-01 18:53:10 |
| - | 3227431_4863357_StableDefission_tigers_in_the_mangrove_boys_24.png | 4323443 | 2025-07-01 18:53:10 |
| - | 3227431_4863358_StableDefission_tigers_in_the_mangrove_boys_25.png | 4400837 | 2025-07-01 18:53:11 |
| - | 3227431_4863359_StableDefission_tigers_in_the_mangrove_boys_26.png | 4385686 | 2025-07-01 18:53:11 |
| - | 3227431_4863361_StableDefission_tigers_in_the_mangrove_boys_27.png | 4437107 | 2025-07-01 18:53:11 |
| - | 3227431_4863363_StableDefission_tigers_in_the_mangrove_boys_28.png | 4485660 | 2025-07-01 18:53:12 |
| - | 3227431_4863364_StableDefission_tigers_in_the_mangrove_boys_29.png | 4492899 | 2025-07-01 18:53:12 |
| - | 3227431_4863366_StableDefission_tigers_in_the_mangrove_boys_30.png | 4655771 | 2025-07-01 18:53:13 |
| - | 3227431_4863367_StableDefission_tigers_in_the_mangrove_boys_31.png | 4063210 | 2025-07-01 18:53:13 |
| - | 3227431_4863370_StableDefission_tigers_in_the_mangrove_boys_32.png | 4379939 | 2025-07-01 18:53:14 |
| - | 3227431_4863371_StableDefission_tigers_in_the_mangrove_boys_33.png | 4432091 | 2025-07-01 18:53:14 |
| - | 3227431_4863373_StableDefission_tigers_in_the_mangrove_boys_34.png | 4248155 | 2025-07-01 18:53:15 |
| - | 3227431_4863375_StableDefission_tigers_in_the_mangrove_boys_35.png | 4364489 | 2025-07-01 18:53:15 |
| - | 3228920.json | 22481 | 2025-07-01 18:28:01 |
| - | 3228920_4865801_StableDefission_blind_bunnies_1.png | 4411323 | 2025-07-01 18:27:59 |
| - | 3228920_4865803_StableDefission_blind_bunnies_2.png | 4239658 | 2025-07-01 18:27:59 |
| - | 3228920_4865804_StableDefission_blind_bunnies_3.png | 4336193 | 2025-07-01 18:27:59 |
| - | 3228920_4865805_StableDefission_blind_bunnies_4.png | 4508502 | 2025-07-01 18:27:59 |
| - | 3228920_4865806_StableDefission_blind_bunnies_5.png | 4540581 | 2025-07-01 18:28:00 |
| - | 3228920_4865807_StableDefission_blind_bunnies_6.png | 4266870 | 2025-07-01 18:28:00 |
| - | 3228920_4865808_StableDefission_blind_bunnies_7.png | 4457919 | 2025-07-01 18:28:00 |
| - | 3228920_4865809_StableDefission_blind_bunnies_8.png | 4390602 | 2025-07-01 18:28:01 |
| - | 3228920_4865811_StableDefission_extracted_prompts.txt | 9792 | 2025-07-01 18:28:01 |
| - | 3234090.json | 9159 | 2025-07-01 16:42:53 |
| - | 3234090_4874443_StableDefission_raccoon_moon.png | 3419148 | 2025-07-01 16:42:53 |
| - | 3238127.json | 6323 | 2025-07-01 15:29:46 |
| - | 3238127_4881303_StableDefission_ib.png | 4392621 | 2025-07-01 15:29:46 |
| - | 3239372.json | 10872 | 2025-07-01 15:08:42 |
| - | 3239372_4883603_StableDefission_stickers_set_1.png | 1822114 | 2025-07-01 15:08:42 |
| - | 3244123.json | 8803 | 2025-07-01 13:41:19 |
| - | 3244123_4892195_StableDefission_feral_loona.png | 4658528 | 2025-07-01 13:41:19 |
| - | 3244123_4892197_StableDefission_extracted_prompts.txt | 2539 | 2025-07-01 13:41:19 |
| - | 3245808.json | 21632 | 2025-07-01 13:09:07 |
| - | 3245808_4894996_StableDefission_captions_1.png | 2171623 | 2025-07-01 13:09:05 |
| - | 3245808_4895002_StableDefission_captions_2.png | 2028029 | 2025-07-01 13:09:06 |
| - | 3245808_4895003_StableDefission_captions_3.png | 2286410 | 2025-07-01 13:09:06 |
| - | 3245808_4895007_StableDefission_captions_4.png | 2269189 | 2025-07-01 13:09:07 |
| - | 3245808_4895009_StableDefission_no_captions_1.png | 2167984 | 2025-07-01 13:09:07 |
| - | 3245808_4895012_StableDefission_no_captions_2.png | 2012342 | 2025-07-01 13:09:07 |
| - | 3245808_4895017_StableDefission_no_captions_3.png | 2284135 | 2025-07-01 13:09:07 |
| - | 3245808_4895020_StableDefission_no_captions_4.png | 2254924 | 2025-07-01 13:09:07 |
| - | 3245808_4895067_StableDefission_extracted_prompts.txt | 5826 | 2025-07-01 13:09:07 |
| - | 3251711.json | 37774 | 2025-07-01 11:22:41 |
| - | 3251711_4904936_StableDefission_01.png | 2473827 | 2025-07-01 11:22:38 |
| - | 3251711_4904938_StableDefission_02.png | 2618805 | 2025-07-01 11:22:38 |
| - | 3251711_4904939_StableDefission_03.png | 2598668 | 2025-07-01 11:22:39 |
| - | 3251711_4904940_StableDefission_04.png | 2656901 | 2025-07-01 11:22:39 |
| - | 3251711_4904941_StableDefission_05.png | 2856135 | 2025-07-01 11:22:39 |
| - | 3251711_4904942_StableDefission_06.png | 2586699 | 2025-07-01 11:22:40 |
| - | 3251711_4904943_StableDefission_07.png | 2619872 | 2025-07-01 11:22:40 |
| - | 3251711_4904944_StableDefission_08.png | 2193658 | 2025-07-01 11:22:41 |
| - | 3251711_4904946_StableDefission_09.png | 2497133 | 2025-07-01 11:22:41 |
| - | 3251711_4904947_StableDefission_10.png | 2705076 | 2025-07-01 11:22:41 |
| - | 3251711_4904949_StableDefission_11.png | 2593234 | 2025-07-01 11:22:42 |
| - | 3251711_4904951_StableDefission_12.png | 2709729 | 2025-07-01 11:22:43 |
| - | 3251711_4904952_StableDefission_13.png | 2541892 | 2025-07-01 11:22:43 |
| - | 3251711_4904954_StableDefission_14.png | 2614839 | 2025-07-01 11:22:43 |
| - | 3251711_4904955_StableDefission_15.png | 2485255 | 2025-07-01 11:22:43 |
| - | 3251711_4904957_StableDefission_16.png | 2801046 | 2025-07-01 11:22:44 |
| - | 3251711_4904960_StableDefission_17.png | 2836567 | 2025-07-01 11:22:44 |
| - | 3251711_4904961_StableDefission_extracted_prompts.txt | 16187 | 2025-07-01 11:22:44 |
| - | 3254109.json | 7789 | 2025-07-01 10:33:05 |
| - | 3254109_4909057_StableDefission_c8ebe581181a4866bd0b341953a2b744.png | 3488096 | 2025-07-01 10:33:05 |
| - | 3254109_4909059_StableDefission_extracted_prompts.txt | 1241 | 2025-07-01 10:33:05 |
| - | 3255097.json | 38282 | 2025-07-01 10:14:39 |
| - | 3255097_4910853_StableDefission_1.png | 2698755 | 2025-07-01 10:14:38 |
| - | 3255097_4910869_StableDefission_2.png | 2697182 | 2025-07-01 10:14:38 |
| - | 3255097_4910870_StableDefission_3.png | 2882308 | 2025-07-01 10:14:38 |
| - | 3255097_4910873_StableDefission_4.png | 2992814 | 2025-07-01 10:14:38 |
| - | 3255097_4910875_StableDefission_5.png | 2717803 | 2025-07-01 10:14:38 |
| - | 3255097_4910877_StableDefission_6.png | 2852490 | 2025-07-01 10:14:39 |
| - | 3255097_4910878_StableDefission_7.png | 2661964 | 2025-07-01 10:14:39 |
| - | 3255097_4910880_StableDefission_8.png | 2751268 | 2025-07-01 10:14:40 |
| - | 3255097_4910881_StableDefission_9.png | 2928738 | 2025-07-01 10:14:40 |
| - | 3255097_4910882_StableDefission_10.png | 2688115 | 2025-07-01 10:14:40 |
| - | 3255097_4910883_StableDefission_11.png | 2994377 | 2025-07-01 10:14:40 |
| - | 3255097_4910884_StableDefission_12.png | 2872525 | 2025-07-01 10:14:41 |
| - | 3255097_4910887_StableDefission_13.png | 2786234 | 2025-07-01 10:14:41 |
| - | 3255097_4910892_StableDefission_14.png | 2764532 | 2025-07-01 10:14:42 |
| - | 3255097_4910894_StableDefission_15.png | 2742098 | 2025-07-01 10:14:42 |
| - | 3255097_4910896_StableDefission_16.png | 2424608 | 2025-07-01 10:14:42 |
| - | 3255097_4910897_StableDefission_17.png | 2760392 | 2025-07-01 10:14:42 |
| - | 3255097_4910899_StableDefission_extracted_prompts.txt | 18511 | 2025-07-01 10:14:43 |
| - | 3255097_4910950_StableDefission_1111.png | 836247 | 2025-07-01 10:14:37 |
| - | 3259550.json | 36259 | 2025-07-01 08:47:57 |
| - | 3259550_4920123_StableDefission_image-001.png | 4126168 | 2025-07-01 08:47:57 |
| - | 3259550_4920125_StableDefission_image-002.png | 2593537 | 2025-07-01 08:47:57 |
| - | 3259550_4920126_StableDefission_image-003.png | 2140751 | 2025-07-01 08:47:58 |
| - | 3259550_4920127_StableDefission_image-004.png | 2506580 | 2025-07-01 08:47:58 |
| - | 3259550_4920128_StableDefission_image-005.png | 2324748 | 2025-07-01 08:47:58 |
| - | 3259550_4920132_StableDefission_image-006.png | 2318154 | 2025-07-01 08:47:58 |
| - | 3259550_4920134_StableDefission_image-007.png | 2349485 | 2025-07-01 08:47:59 |
| - | 3259550_4920137_StableDefission_image-008.png | 2811737 | 2025-07-01 08:47:59 |
| - | 3259550_4920138_StableDefission_image-009.png | 2632490 | 2025-07-01 08:47:59 |
| - | 3259550_4920139_StableDefission_image-010.png | 2485890 | 2025-07-01 08:48:00 |
| - | 3259550_4920141_StableDefission_image-011.png | 2297615 | 2025-07-01 08:48:00 |
| - | 3259550_4920142_StableDefission_image-012.png | 2384604 | 2025-07-01 08:48:00 |
| - | 3259550_4920144_StableDefission_image-013.png | 2228847 | 2025-07-01 08:48:00 |
| - | 3259550_4920148_StableDefission_image-014.png | 2426023 | 2025-07-01 08:48:01 |
| - | 3259550_4920149_StableDefission_image-015.png | 2436470 | 2025-07-01 08:48:01 |
| - | 3259550_4920152_StableDefission_metadata_summary.txt | 15679 | 2025-07-01 08:48:01 |
| - | 3259691.json | 11311 | 2025-07-01 08:45:58 |
| - | 3259691_4920377_StableDefission_image-001.png | 1751125 | 2025-07-01 08:45:58 |
| - | 3259691_4920378_StableDefission_image-002.png | 2229871 | 2025-07-01 08:45:58 |
| - | 3259691_4920379_StableDefission_image-003.png | 2330442 | 2025-07-01 08:45:58 |
| - | 3259691_4920380_StableDefission_metadata_summary.txt | 2649 | 2025-07-01 08:45:58 |
| - | 3259693.json | 8288 | 2025-07-01 08:45:55 |
| - | 3259693_4920382_StableDefission_image-001.png | 2872702 | 2025-07-01 08:45:55 |
| - | 3259693_4920384_StableDefission_metadata_summary.txt | 1483 | 2025-07-01 08:45:55 |
| - | 3260809.json | 10096 | 2025-07-01 08:26:48 |
| - | 3260809_4922404_StableDefission_image-001.png | 2553012 | 2025-07-01 08:26:48 |
| - | 3260809_4922407_StableDefission_metadata_summary.txt | 1209 | 2025-07-01 08:26:48 |
| - | 3260813.json | 7516 | 2025-07-01 08:26:44 |
| - | 3260813_4922410_StableDefission_image-001.png | 2739761 | 2025-07-01 08:26:44 |
| - | 3260813_4922414_StableDefission_metadata_summary.txt | 1227 | 2025-07-01 08:26:44 |
| - | 3270177.json | 8379 | 2025-07-01 05:33:10 |
| - | 3270177_4939103_StableDefission_30.png | 694598 | 2025-07-01 05:33:10 |
| - | 3270177_4939105_StableDefission_mic_drop.txt | 905 | 2025-07-01 05:33:10 |
| - | 3275234.json | 23172 | 2025-07-01 03:44:35 |
| - | 3275234_4947863_StableDefission_image-001.png | 2715332 | 2025-07-01 03:44:35 |
| - | 3275234_4947865_StableDefission_image-002.png | 2944447 | 2025-07-01 03:44:35 |
| - | 3275234_4947866_StableDefission_image-003.png | 2813828 | 2025-07-01 03:44:36 |
| - | 3275234_4947868_StableDefission_image-004.png | 2584531 | 2025-07-01 03:44:36 |
| - | 3275234_4947869_StableDefission_image-005.png | 2446541 | 2025-07-01 03:44:36 |
| - | 3275234_4947870_StableDefission_image-006.png | 2440866 | 2025-07-01 03:44:37 |
| - | 3275234_4947871_StableDefission_image-007.png | 2730619 | 2025-07-01 03:44:37 |
| - | 3275234_4947872_StableDefission_image-008.png | 2661715 | 2025-07-01 03:44:38 |
| - | 3275234_4947874_StableDefission_image-009.png | 2548859 | 2025-07-01 03:44:39 |
| - | 3275234_4947876_StableDefission_metadata_summary.txt | 7449 | 2025-07-01 03:44:39 |
| - | 3275239.json | 20781 | 2025-07-01 03:44:31 |
| - | 3275239_4947877_StableDefission_image-001.png | 2332204 | 2025-07-01 03:44:27 |
| - | 3275239_4947878_StableDefission_image-002.png | 2380923 | 2025-07-01 03:44:28 |
| - | 3275239_4947880_StableDefission_image-003.png | 2445070 | 2025-07-01 03:44:28 |
| - | 3275239_4947881_StableDefission_image-004.png | 2085200 | 2025-07-01 03:44:28 |
| - | 3275239_4947882_StableDefission_image-005.png | 2411890 | 2025-07-01 03:44:29 |
| - | 3275239_4947884_StableDefission_image-006.png | 2149667 | 2025-07-01 03:44:29 |
| - | 3275239_4947885_StableDefission_image-007.png | 2505963 | 2025-07-01 03:44:30 |
| - | 3275239_4947886_StableDefission_image-008.png | 2472527 | 2025-07-01 03:44:31 |
| - | 3275239_4947887_StableDefission_metadata_summary.txt | 6560 | 2025-07-01 03:44:31 |
| - | 3277288.json | 11828 | 2025-07-01 03:01:47 |
| - | 3277288_4951261_StableDefission_image-001.png | 3046750 | 2025-07-01 03:01:46 |
| - | 3277288_4951262_StableDefission_image-002.png | 3142164 | 2025-07-01 03:01:46 |
| - | 3277288_4951263_StableDefission_image-003.png | 3077285 | 2025-07-01 03:01:46 |
| - | 3277288_4951265_StableDefission_metadata_summary.txt | 4107 | 2025-07-01 03:01:47 |
| - | 3277303.json | 12103 | 2025-07-01 03:01:32 |
| - | 3277303_4951315_StableDefission_aiib.png | 27120 | 2025-07-01 03:01:32 |
| - | 3277321.json | 22516 | 2025-07-01 03:01:12 |
| - | 3277321_4951351_StableDefission_image-001.png | 2496160 | 2025-07-01 03:01:12 |
| - | 3277321_4951354_StableDefission_image-002.png | 2580510 | 2025-07-01 03:01:12 |
| - | 3277321_4951357_StableDefission_image-004.png | 2823327 | 2025-07-01 03:01:13 |
| - | 3277321_4951360_StableDefission_image-005.png | 2399715 | 2025-07-01 03:01:14 |
| - | 3277321_4951362_StableDefission_image-006.png | 2398569 | 2025-07-01 03:01:14 |
| - | 3277321_4951363_StableDefission_image-007.png | 2262054 | 2025-07-01 03:01:15 |
| - | 3277321_4951365_StableDefission_image-008.png | 2674883 | 2025-07-01 03:01:15 |
| - | 3277321_4951366_StableDefission_metadata_summary.txt | 6031 | 2025-07-01 03:01:15 |
| - | 3277321_4954458_StableDefission_3.png | 2676592 | 2025-07-01 03:01:13 |
| - | 3285496.json | 6458 | 2025-07-01 00:20:57 |
| - | 3285496_4966277_StableDefission_group.png | 843677 | 2025-07-01 00:20:57 |
| - | 3288135.json | 21837 | 2025-06-30 23:29:19 |
| - | 3288135_4971522_StableDefission_image-001.png | 10624822 | 2025-06-30 23:29:19 |
| - | 3288135_4971523_StableDefission_image-002.png | 2816070 | 2025-06-30 23:29:21 |
| - | 3288135_4971525_StableDefission_image-003.png | 2422783 | 2025-06-30 23:29:21 |
| - | 3288135_4971526_StableDefission_image-004.png | 2628962 | 2025-06-30 23:29:21 |
| - | 3288135_4971527_StableDefission_image-005.png | 2566178 | 2025-06-30 23:29:22 |
| - | 3288135_4971528_StableDefission_image-006.png | 10565988 | 2025-06-30 23:29:22 |
| - | 3288135_4971530_StableDefission_image-007.png | 2794542 | 2025-06-30 23:29:22 |
| - | 3288135_4971531_StableDefission_image-008.png | 11097486 | 2025-06-30 23:29:23 |
| - | 3288135_4971532_StableDefission_metadata_summary.txt | 8874 | 2025-06-30 23:29:23 |
| - | 3317840.json | 20182 | 2025-06-30 12:33:46 |
| - | 3317840_5025025_StableDefission_image-001.png | 5974332 | 2025-06-30 12:33:40 |
| - | 3317840_5025026_StableDefission_image-002.png | 6663432 | 2025-06-30 12:33:41 |
| - | 3317840_5025029_StableDefission_image-003.png | 6708454 | 2025-06-30 12:33:41 |
| - | 3317840_5025031_StableDefission_image-004.png | 5890657 | 2025-06-30 12:33:42 |
| - | 3317840_5025034_StableDefission_image-005.png | 6536600 | 2025-06-30 12:33:42 |
| - | 3317840_5025036_StableDefission_image-006.png | 8586828 | 2025-06-30 12:33:45 |
| - | 3317840_5025039_StableDefission_image-007.png | 6410984 | 2025-06-30 12:33:46 |
| - | 3317840_5025043_StableDefission_metadata_summary.txt | 7166 | 2025-06-30 12:33:46 |
| - | 3319673.json | 12033 | 2025-06-30 11:54:05 |
| - | 3319673_5028569_StableDefission_image-001.png | 7705150 | 2025-06-30 11:54:04 |
| - | 3319673_5028570_StableDefission_image-002.png | 7952079 | 2025-06-30 11:54:04 |
| - | 3319673_5028572_StableDefission_image-003.png | 17516115 | 2025-06-30 11:54:05 |
| - | 3319673_5028573_StableDefission_metadata_summary.txt | 4109 | 2025-06-30 11:54:05 |
| - | 3319703.json | 12333 | 2025-06-30 11:53:19 |
| - | 3319703_5028618_StableDefission_image-001.png | 6342681 | 2025-06-30 11:53:18 |
| - | 3319703_5028619_StableDefission_image-002.png | 8876908 | 2025-06-30 11:53:19 |
| - | 3319703_5028623_StableDefission_image-003.png | 7187935 | 2025-06-30 11:53:20 |
| - | 3319703_5028630_StableDefission_metadata_summary.txt | 3625 | 2025-06-30 11:53:20 |
| - | 3344484.json | 8310 | 2025-06-30 03:44:24 |
| - | 3344484_5071224_StableDefission_image-001.png | 5296456 | 2025-06-30 03:44:24 |
| - | 3344484_5071228_StableDefission_metadata_summary.txt | 871 | 2025-06-30 03:44:24 |
| - | 3470919.json | 8660 | 2025-06-28 06:39:06 |
| - | 3470919_5292789_StableDefission_makefoxbot_full_image_7302213.png | 2636762 | 2025-06-28 06:39:06 |